Time;durP1;ratioP1;P1;durP2;ratioP2;P2;SDS_P1;SDS_P2;PMS_P1;PMS_P2;Temp;Humidity;BMP_temperature;BMP_pressure;BME280_temperature;BME280_humidity;BME280_pressure;Samples;Min_cycle;Max_cycle;Signal;HPM_P1;HPM_P2
2023/08/29 00:00:02;;;;;;;10.20;5.28;;;14.00;99.90;;;;;;5114626;28;20170;-65
2023/08/29 00:02:31;;;;;;;8.48;4.00;;;14.00;99.90;;;;;;5114209;28;20023;-66
2023/08/29 00:04:57;;;;;;;7.90;4.15;;;14.00;99.90;;;;;;5114143;28;20051;-66
2023/08/29 00:07:23;;;;;;;9.60;4.60;;;14.00;99.90;;;;;;5114440;28;20043;-67
2023/08/29 00:09:49;;;;;;;5.63;3.40;;;14.00;99.90;;;;;;5113797;28;20035;-67
2023/08/29 00:12:14;;;;;;;8.27;3.90;;;14.00;99.90;;;;;;5114310;28;20080;-65
2023/08/29 00:14:40;;;;;;;10.77;4.68;;;14.00;99.90;;;;;;5113232;28;20185;-66
2023/08/29 00:17:07;;;;;;;8.63;3.97;;;13.90;99.90;;;;;;5113978;28;20378;-65
2023/08/29 00:19:33;;;;;;;7.63;4.13;;;13.90;99.90;;;;;;5114051;28;20020;-65
2023/08/29 00:22:01;;;;;;;10.93;5.13;;;13.90;99.90;;;;;;5114171;28;20077;-65
2023/08/29 00:24:28;;;;;;;12.07;4.68;;;13.90;99.90;;;;;;5095776;28;20028;-66
2023/08/29 00:26:53;;;;;;;7.38;4.18;;;13.90;99.90;;;;;;5093441;28;20420;-66
2023/08/29 00:29:19;;;;;;;7.22;4.13;;;13.80;99.90;;;;;;5110257;28;20070;-66
2023/08/29 00:31:44;;;;;;;10.13;4.88;;;13.80;99.90;;;;;;5113738;28;20042;-66
2023/08/29 00:34:10;;;;;;;8.40;4.68;;;13.80;99.90;;;;;;5114088;28;20031;-66
2023/08/29 00:36:35;;;;;;;7.78;3.72;;;13.80;99.90;;;;;;5113899;28;20072;-65
2023/08/29 00:39:03;;;;;;;5.80;4.03;;;13.80;99.90;;;;;;5112554;28;20436;-65
2023/08/29 00:41:28;;;;;;;7.28;3.83;;;13.70;99.90;;;;;;5113700;28;20028;-66
2023/08/29 00:43:54;;;;;;;8.13;3.90;;;13.80;99.90;;;;;;5113806;28;20034;-65
2023/08/29 00:46:20;;;;;;;12.40;4.28;;;13.80;99.90;;;;;;5113367;28;20075;-64
2023/08/29 00:48:46;;;;;;;7.95;3.90;;;13.70;99.90;;;;;;5113572;28;20046;-66
2023/08/29 00:51:12;;;;;;;6.53;3.45;;;13.70;99.90;;;;;;5113708;28;20030;-65
2023/08/29 00:53:38;;;;;;;8.27;4.05;;;13.70;99.90;;;;;;5113139;28;20024;-66
2023/08/29 00:56:04;;;;;;;6.43;3.65;;;13.70;99.90;;;;;;5113526;28;20023;-66
2023/08/29 00:58:31;;;;;;;8.68;3.75;;;13.60;99.90;;;;;;5113292;28;20460;-66
2023/08/29 01:00:57;;;;;;;10.50;4.95;;;13.60;99.90;;;;;;5113368;28;20047;-65
2023/08/29 01:03:22;;;;;;;7.90;4.35;;;13.60;99.90;;;;;;5113059;28;20455;-65
2023/08/29 01:05:48;;;;;;;6.50;3.60;;;13.70;99.90;;;;;;5113451;28;20075;-67
2023/08/29 01:08:14;;;;;;;8.15;3.78;;;13.70;99.90;;;;;;5113065;28;20122;-66
2023/08/29 01:10:45;;;;;;;5.90;3.42;;;13.70;99.90;;;;;;5112897;28;20028;-66
2023/08/29 01:13:26;;;;;;;5.93;3.45;;;13.60;99.90;;;;;;5113011;28;20028;-66
2023/08/29 01:15:55;;;;;;;8.25;3.45;;;13.60;99.90;;;;;;5113137;28;20036;-65
2023/08/29 01:18:23;;;;;;;8.02;3.63;;;13.60;99.90;;;;;;5112718;28;20114;-66
2023/08/29 01:20:50;;;;;;;6.65;4.00;;;13.60;99.90;;;;;;5112712;28;20532;-65
2023/08/29 01:23:33;;;;;;;5.10;3.22;;;13.60;99.90;;;;;;5113198;28;20034;-65
2023/08/29 01:26:17;;;;;;;5.95;3.15;;;13.50;99.90;;;;;;5112931;28;20031;-66
2023/08/29 01:28:44;;;;;;;5.03;3.05;;;13.50;99.90;;;;;;5112906;28;20036;-66
2023/08/29 01:31:11;;;;;;;6.18;4.00;;;13.40;99.90;;;;;;5113021;28;20112;-66
2023/08/29 01:33:38;;;;;;;7.05;3.55;;;13.40;99.90;;;;;;5112817;28;20035;-66
2023/08/29 01:36:04;;;;;;;7.22;3.70;;;13.40;99.90;;;;;;5112309;28;20031;-66
2023/08/29 01:38:30;;;;;;;6.25;3.80;;;13.40;99.90;;;;;;5112982;28;20035;-66
2023/08/29 01:40:56;;;;;;;5.75;3.20;;;13.40;99.90;;;;;;5112834;28;20054;-66
2023/08/29 01:43:21;;;;;;;5.90;3.80;;;13.40;99.90;;;;;;5112861;28;20585;-67
2023/08/29 01:45:47;;;;;;;9.40;3.90;;;13.50;99.90;;;;;;5112714;28;20035;-66
2023/08/29 01:48:13;;;;;;;6.72;3.38;;;13.50;99.90;;;;;;5112782;28;20475;-66
2023/08/29 01:50:42;;;;;;;6.60;3.78;;;13.60;99.90;;;;;;5112769;28;20032;-66
2023/08/29 01:53:08;;;;;;;6.68;3.58;;;13.60;99.90;;;;;;5112596;28;20042;-66
2023/08/29 01:55:35;;;;;;;7.93;3.60;;;13.70;99.90;;;;;;5112634;28;20051;-65
2023/08/29 01:58:03;;;;;;;7.53;3.20;;;13.80;99.90;;;;;;5112585;28;20408;-65
2023/08/29 02:00:30;;;;;;;7.50;3.13;;;13.90;99.90;;;;;;5112712;28;20031;-66
2023/08/29 02:02:56;;;;;;;5.35;2.80;;;14.00;99.90;;;;;;5112536;28;20032;-65
2023/08/29 02:05:21;;;;;;;6.10;3.15;;;14.10;99.90;;;;;;5111259;28;20413;-66
2023/08/29 02:07:48;;;;;;;6.05;3.97;;;14.10;99.90;;;;;;5112279;28;20491;-65
2023/08/29 02:10:14;;;;;;;6.20;3.80;;;14.20;99.90;;;;;;5112056;28;20027;-65
2023/08/29 02:12:40;;;;;;;7.40;3.95;;;14.20;99.90;;;;;;5112513;28;20023;-65
2023/08/29 02:15:06;;;;;;;7.72;3.58;;;14.30;99.90;;;;;;5112714;28;20026;-65
2023/08/29 02:17:33;;;;;;;6.88;3.63;;;14.30;99.90;;;;;;5112685;28;20036;-65
2023/08/29 02:19:58;;;;;;;8.70;3.63;;;14.30;99.90;;;;;;5112425;28;20032;-64
2023/08/29 02:22:24;;;;;;;7.60;3.97;;;14.40;99.90;;;;;;5115738;28;20073;-65
2023/08/29 02:24:49;;;;;;;7.10;4.10;;;14.50;99.90;;;;;;5095988;28;20024;-65
2023/08/29 02:27:15;;;;;;;8.45;4.35;;;14.50;99.90;;;;;;5104940;28;20024;-65
2023/08/29 02:29:40;;;;;;;6.43;4.18;;;14.60;99.90;;;;;;5115998;28;20028;-65
2023/08/29 02:32:06;;;;;;;5.57;3.10;;;14.70;99.90;;;;;;5116470;28;20023;-66
2023/08/29 02:34:31;;;;;;;6.03;3.13;;;14.70;99.90;;;;;;5116220;28;20028;-66
2023/08/29 02:36:57;;;;;;;7.72;3.47;;;14.80;99.90;;;;;;5116029;28;20513;-67
2023/08/29 02:39:23;;;;;;;5.97;3.55;;;14.80;99.90;;;;;;5114862;28;20111;-67
2023/08/29 02:41:48;;;;;;;6.28;3.80;;;14.80;99.90;;;;;;5115867;28;20116;-65
2023/08/29 02:44:14;;;;;;;5.88;3.88;;;14.80;99.90;;;;;;5115479;28;20024;-64
2023/08/29 02:46:39;;;;;;;4.30;3.20;;;14.80;99.90;;;;;;5115440;28;20422;-65
2023/08/29 02:49:05;;;;;;;8.32;3.30;;;14.70;99.90;;;;;;5115571;28;20035;-65
2023/08/29 02:51:30;;;;;;;7.03;3.05;;;14.70;99.90;;;;;;5116083;28;20020;-65
2023/08/29 02:53:56;;;;;;;5.05;2.92;;;14.70;99.90;;;;;;5115784;27;20647;-65
2023/08/29 02:56:22;;;;;;;7.30;3.83;;;14.60;99.90;;;;;;5115605;28;20670;-65
2023/08/29 02:58:47;;;;;;;6.45;3.13;;;14.50;99.90;;;;;;5115782;28;20088;-65
2023/08/29 03:01:13;;;;;;;8.40;3.42;;;14.50;99.90;;;;;;5114724;28;20494;-65
2023/08/29 03:03:39;;;;;;;5.50;3.45;;;14.40;99.90;;;;;;5114142;28;20032;-65
2023/08/29 03:06:05;;;;;;;5.05;3.38;;;14.30;99.90;;;;;;5115471;28;20429;-65
2023/08/29 03:08:30;;;;;;;7.95;3.58;;;14.30;99.90;;;;;;5115659;28;20424;-65
2023/08/29 03:10:56;;;;;;;6.07;3.30;;;14.20;99.90;;;;;;5115493;28;20030;-65
2023/08/29 03:13:22;;;;;;;8.18;3.60;;;14.20;99.90;;;;;;5115843;28;20804;-65
2023/08/29 03:15:48;;;;;;;7.03;3.83;;;14.10;99.90;;;;;;5115442;28;20498;-64
2023/08/29 03:18:14;;;;;;;6.97;4.20;;;14.20;99.90;;;;;;5115165;28;20027;-65
2023/08/29 03:20:44;;;;;;;9.27;3.70;;;14.10;99.90;;;;;;5115391;28;20028;-65
2023/08/29 03:23:10;;;;;;;8.85;4.13;;;14.10;99.90;;;;;;5115214;28;20034;-64
2023/08/29 03:25:36;;;;;;;7.25;4.03;;;14.10;99.90;;;;;;5114821;28;20028;-65
2023/08/29 03:28:02;;;;;;;9.73;4.07;;;14.10;99.90;;;;;;5114579;28;20463;-66
2023/08/29 03:30:29;;;;;;;8.00;4.10;;;14.20;99.90;;;;;;5114978;28;20035;-65
2023/08/29 03:32:55;;;;;;;6.85;3.53;;;14.20;99.90;;;;;;5115182;28;20103;-66
2023/08/29 03:35:21;;;;;;;10.32;3.60;;;14.20;99.90;;;;;;5114557;28;20114;-66
2023/08/29 03:37:46;;;;;;;6.65;3.15;;;14.30;99.90;;;;;;5115276;28;20084;-66
2023/08/29 03:40:12;;;;;;;6.53;3.38;;;14.30;99.90;;;;;;5114937;28;20027;-65
2023/08/29 03:42:39;;;;;;;6.05;2.95;;;14.30;99.90;;;;;;5114950;28;20024;-65
2023/08/29 03:45:05;;;;;;;6.75;3.35;;;14.40;99.90;;;;;;5114544;28;20136;-66
2023/08/29 03:47:33;;;;;;;5.30;2.90;;;14.40;99.90;;;;;;5115140;28;20528;-65
2023/08/29 03:49:58;;;;;;;6.88;3.08;;;14.40;99.90;;;;;;5114764;28;20028;-64
2023/08/29 03:52:26;;;;;;;7.93;3.50;;;14.40;99.90;;;;;;5114631;28;20097;-66
2023/08/29 03:54:58;;;;;;;8.23;3.95;;;14.50;99.90;;;;;;5114537;28;20020;-65
2023/08/29 03:57:27;;;;;;;10.18;4.18;;;14.50;99.90;;;;;;5114619;28;20032;-66
2023/08/29 03:59:53;;;;;;;6.32;3.70;;;14.60;99.90;;;;;;5114306;28;20066;-65
2023/08/29 04:02:18;;;;;;;8.43;3.70;;;14.60;99.90;;;;;;5114613;28;20063;-65
2023/08/29 04:04:44;;;;;;;8.02;3.75;;;14.70;99.90;;;;;;5114369;28;20479;-65
2023/08/29 04:07:10;;;;;;;6.68;4.18;;;14.70;99.90;;;;;;5114650;28;20028;-64
2023/08/29 04:09:36;;;;;;;13.65;4.50;;;14.70;99.90;;;;;;5114746;28;20031;-66
2023/08/29 04:12:02;;;;;;;5.97;3.25;;;14.80;99.90;;;;;;5114493;28;20379;-66
2023/08/29 04:14:28;;;;;;;7.07;3.28;;;14.80;99.90;;;;;;5114646;28;20031;-65
2023/08/29 04:16:54;;;;;;;9.73;3.28;;;14.80;99.90;;;;;;5114321;28;20023;-66
2023/08/29 04:19:20;;;;;;;4.30;2.78;;;14.90;99.90;;;;;;5113910;28;20034;-66
2023/08/29 04:21:46;;;;;;;7.22;3.33;;;14.90;99.90;;;;;;5114033;28;20478;-66
2023/08/29 04:24:11;;;;;;;4.53;2.88;;;14.80;99.90;;;;;;5098654;27;20051;-66
2023/08/29 04:26:37;;;;;;;6.88;3.20;;;14.80;99.90;;;;;;5094023;28;20027;-66
2023/08/29 04:29:02;;;;;;;6.05;2.95;;;14.80;99.90;;;;;;5093612;28;20059;-65
2023/08/29 04:31:28;;;;;;;6.15;3.33;;;14.80;99.90;;;;;;5093706;28;20491;-65
2023/08/29 04:33:53;;;;;;;7.00;3.20;;;14.80;99.90;;;;;;5094076;28;20059;-65
2023/08/29 04:36:19;;;;;;;5.30;3.25;;;14.80;99.90;;;;;;5093256;28;20379;-64
2023/08/29 04:38:47;;;;;;;7.35;2.92;;;14.80;99.90;;;;;;5113776;28;20487;-67
2023/08/29 04:41:13;;;;;;;7.97;2.97;;;14.80;99.90;;;;;;5114033;28;20031;-65
2023/08/29 04:43:41;;;;;;;10.23;3.25;;;14.80;99.90;;;;;;5113887;28;20463;-65
2023/08/29 04:46:07;;;;;;;6.00;2.95;;;14.80;99.90;;;;;;5113598;28;20467;-66
2023/08/29 04:48:33;;;;;;;5.03;3.13;;;14.80;99.90;;;;;;5113588;28;20036;-66
2023/08/29 04:50:59;;;;;;;7.70;3.10;;;14.90;99.90;;;;;;5113512;28;20023;-66
2023/08/29 04:53:25;;;;;;;5.30;3.03;;;14.90;99.90;;;;;;5112257;28;20038;-67
2023/08/29 04:56:02;;;;;;;8.77;3.85;;;14.90;99.90;;;;;;5113337;28;20459;-64
2023/08/29 04:58:28;;;;;;;9.95;3.25;;;14.90;99.90;;;;;;5113630;28;20019;-67
2023/08/29 05:00:54;;;;;;;6.10;3.45;;;14.90;99.90;;;;;;5113518;28;20371;-65
2023/08/29 05:03:21;;;;;;;8.05;3.53;;;14.80;99.90;;;;;;5113234;28;20039;-65
2023/08/29 05:05:47;;;;;;;6.90;3.75;;;14.80;99.90;;;;;;5113463;28;20043;-65
2023/08/29 05:08:13;;;;;;;7.28;3.47;;;14.80;99.90;;;;;;5113326;28;20042;-65
2023/08/29 05:10:44;;;;;;;7.57;3.30;;;14.80;99.90;;;;;;5113719;28;20395;-65
2023/08/29 05:13:10;;;;;;;6.57;3.28;;;14.80;99.90;;;;;;5104053;28;20035;-65
2023/08/29 05:15:35;;;;;;;9.02;3.55;;;14.70;99.90;;;;;;5093106;28;20023;-65
2023/08/29 05:18:01;;;;;;;6.40;3.40;;;14.70;99.90;;;;;;5092778;28;20073;-65
2023/08/29 05:20:27;;;;;;;7.75;3.42;;;14.60;99.90;;;;;;5093040;28;20024;-65
2023/08/29 05:22:52;;;;;;;8.13;3.50;;;14.60;99.90;;;;;;5092941;28;20452;-65
2023/08/29 05:25:18;;;;;;;7.03;3.58;;;14.60;99.90;;;;;;5092774;28;20097;-65
2023/08/29 05:27:43;;;;;;;8.05;3.17;;;14.60;99.90;;;;;;5091288;28;20040;-66
2023/08/29 05:30:09;;;;;;;6.15;3.20;;;14.60;99.90;;;;;;5112072;28;20432;-65
2023/08/29 05:32:38;;;;;;;6.00;3.42;;;14.50;99.90;;;;;;5112782;28;20588;-65
2023/08/29 05:35:04;;;;;;;5.93;3.50;;;14.50;99.90;;;;;;5113008;28;20035;-65
2023/08/29 05:37:29;;;;;;;6.10;3.60;;;14.40;99.90;;;;;;5102750;28;20042;-65
2023/08/29 05:39:55;;;;;;;6.43;3.50;;;14.50;99.90;;;;;;5112906;28;20024;-65
2023/08/29 05:42:20;;;;;;;8.80;3.50;;;14.50;99.90;;;;;;5112908;28;20103;-66
2023/08/29 05:44:46;;;;;;;4.70;3.33;;;14.40;99.90;;;;;;5113195;28;20034;-66
2023/08/29 05:47:12;;;;;;;8.23;3.65;;;14.50;99.90;;;;;;5112108;28;20032;-66
2023/08/29 05:49:37;;;;;;;8.27;3.53;;;14.50;99.90;;;;;;5113192;28;20032;-65
2023/08/29 05:52:03;;;;;;;6.90;3.88;;;14.50;99.90;;;;;;5113415;28;20447;-66
2023/08/29 05:54:29;;;;;;;8.68;3.90;;;14.60;99.90;;;;;;5113423;28;20023;-65
2023/08/29 05:56:55;;;;;;;10.10;4.13;;;14.70;99.90;;;;;;5116304;28;20031;-65
2023/08/29 05:59:21;;;;;;;8.05;4.57;;;14.80;99.90;;;;;;5116904;28;20370;-65
2023/08/29 06:01:47;;;;;;;8.45;4.35;;;14.90;99.90;;;;;;5116290;28;20027;-65
2023/08/29 06:04:12;;;;;;;8.95;4.57;;;15.00;99.90;;;;;;5116475;28;20063;-66
2023/08/29 06:06:39;;;;;;;8.13;4.25;;;15.10;99.90;;;;;;5115553;28;20077;-66
2023/08/29 06:09:08;;;;;;;9.52;4.45;;;15.30;99.90;;;;;;5115359;28;20127;-66
2023/08/29 06:11:34;;;;;;;13.82;5.22;;;15.30;99.90;;;;;;5115389;28;20055;-66
2023/08/29 06:14:00;;;;;;;10.20;4.63;;;15.50;99.90;;;;;;5115357;28;20035;-66
2023/08/29 06:16:26;;;;;;;8.38;4.28;;;15.60;99.90;;;;;;5113989;28;20019;-65
2023/08/29 06:18:51;;;;;;;10.82;4.75;;;15.70;99.90;;;;;;5113820;28;20032;-65
2023/08/29 06:21:17;;;;;;;12.13;4.40;;;15.80;99.90;;;;;;5114271;28;20028;-65
2023/08/29 06:23:42;;;;;;;10.15;4.20;;;15.80;99.90;;;;;;5102991;28;20024;-66
2023/08/29 06:26:08;;;;;;;8.25;3.92;;;15.90;99.90;;;;;;5094447;28;20066;-65
2023/08/29 06:28:34;;;;;;;8.35;4.13;;;15.90;99.90;;;;;;5103269;28;20031;-66
2023/08/29 06:31:04;;;;;;;7.63;3.80;;;16.00;99.90;;;;;;5113234;28;20382;-65
2023/08/29 06:33:30;;;;;;;7.80;3.70;;;16.10;99.90;;;;;;5115210;28;20036;-65
2023/08/29 06:35:57;;;;;;;6.43;3.45;;;16.20;99.90;;;;;;5114655;28;20024;-65
2023/08/29 06:38:23;;;;;;;13.90;3.65;;;16.20;99.90;;;;;;5115080;28;20521;-66
2023/08/29 06:40:55;;;;;;;6.45;3.00;;;16.30;99.90;;;;;;5115062;28;20032;-66
2023/08/29 06:43:21;;;;;;;4.95;2.95;;;16.50;99.90;;;;;;5114842;28;20067;-65
2023/08/29 06:45:47;;;;;;;8.30;3.13;;;16.60;99.90;;;;;;5114925;28;20027;-65
2023/08/29 06:48:12;;;;;;;6.18;2.83;;;16.70;99.90;;;;;;5114421;28;20406;-66
2023/08/29 06:50:38;;;;;;;12.52;3.67;;;16.80;99.90;;;;;;5114432;28;20034;-66
2023/08/29 06:53:04;;;;;;;8.60;3.63;;;16.80;99.90;;;;;;5094376;28;20035;-65
2023/08/29 06:55:34;;;;;;;5.53;3.03;;;16.90;99.90;;;;;;5094593;28;20036;-65
2023/08/29 06:58:04;;;;;;;7.80;3.95;;;17.00;99.90;;;;;;5094357;28;20046;-66
2023/08/29 07:00:33;;;;;;;3.90;2.50;;;17.10;99.90;;;;;;5094247;28;20024;-66
2023/08/29 07:02:59;;;;;;;8.57;3.38;;;17.40;99.90;;;;;;5093960;28;20056;-66
2023/08/29 07:05:26;;;;;;;8.20;3.10;;;17.80;99.90;;;;;;5051861;28;1227085;-65
2023/08/29 07:07:52;;;;;;;5.43;2.88;;;18.40;99.90;;;;;;5113670;28;20040;-66
2023/08/29 07:10:18;;;;;;;5.35;2.33;;;19.00;99.90;;;;;;5115937;27;20023;-66
2023/08/29 07:12:43;;;;;;;9.27;3.10;;;19.40;99.90;;;;;;5115775;28;20483;-66
2023/08/29 07:15:09;;;;;;;9.30;2.45;;;19.60;99.90;;;;;;5115856;28;20156;-66
2023/08/29 07:17:35;;;;;;;6.00;3.13;;;19.50;99.90;;;;;;5115731;28;20028;-66
2023/08/29 07:20:00;;;;;;;8.60;3.03;;;19.50;99.90;;;;;;5115173;28;20036;-66
2023/08/29 07:22:26;;;;;;;5.05;2.13;;;19.50;99.90;;;;;;5115647;28;20127;-66
2023/08/29 07:24:52;;;;;;;5.68;2.05;;;19.70;99.90;;;;;;5115626;28;20019;-65
2023/08/29 07:27:17;;;;;;;5.18;1.98;;;19.80;99.90;;;;;;5115204;28;20023;-66
2023/08/29 07:29:43;;;;;;;4.63;1.80;;;19.80;99.90;;;;;;5115520;28;20133;-66
2023/08/29 07:32:09;;;;;;;4.65;1.83;;;19.90;99.90;;;;;;5115254;28;20034;-65
2023/08/29 07:34:35;;;;;;;9.30;2.00;;;20.00;99.90;;;;;;5114565;28;20035;-66
2023/08/29 07:37:02;;;;;;;3.88;2.15;;;20.10;99.90;;;;;;5115439;28;20031;-66
2023/08/29 07:39:28;;;;;;;2.97;1.50;;;20.40;99.90;;;;;;5115412;28;20524;-67
2023/08/29 07:41:53;;;;;;;9.63;2.60;;;20.60;99.90;;;;;;5115124;28;20024;-65
2023/08/29 07:44:19;;;;;;;9.68;2.65;;;20.70;99.90;;;;;;5115163;28;20486;-66
2023/08/29 07:46:45;;;;;;;6.97;2.00;;;21.10;99.90;;;;;;5115000;28;20463;-65
2023/08/29 07:49:13;;;;;;;7.38;3.45;;;21.60;99.90;;;;;;5114524;28;20096;-65
2023/08/29 07:51:42;;;;;;;8.18;2.33;;;22.30;99.90;;;;;;5114351;28;20046;-65
2023/08/29 07:54:07;;;;;;;5.03;2.50;;;22.90;99.90;;;;;;5114862;28;20463;-65
2023/08/29 07:56:33;;;;;;;5.57;1.77;;;23.40;99.90;;;;;;5114446;28;20018;-65
2023/08/29 07:58:58;;;;;;;15.55;4.30;;;23.70;99.90;;;;;;5114747;28;20059;-65
2023/08/29 08:01:24;;;;;;;2.47;1.77;;;23.60;99.90;;;;;;5114574;28;20054;-65
2023/08/29 08:03:50;;;;;;;7.57;1.70;;;23.40;99.90;;;;;;5115167;28;20051;-65
2023/08/29 08:06:15;;;;;;;2.85;1.58;;;23.30;99.90;;;;;;5114719;28;20043;-65
2023/08/29 08:08:41;;;;;;;9.32;3.05;;;23.40;99.90;;;;;;5114438;28;20766;-65
2023/08/29 08:11:07;;;;;;;7.07;2.08;;;23.90;99.90;;;;;;5114592;28;20050;-65
2023/08/29 08:13:34;;;;;;;7.35;1.63;;;24.70;99.90;;;;;;5114820;28;20052;-65
2023/08/29 08:15:59;;;;;;;2.63;1.52;;;25.60;99.90;;;;;;5113855;28;20544;-65
2023/08/29 08:18:25;;;;;;;2.10;1.13;;;26.30;98.80;;;;;;5112485;28;20051;-66
2023/08/29 08:20:50;;;;;;;2.53;1.40;;;27.40;98.30;;;;;;5101782;28;20057;-66
2023/08/29 08:23:17;;;;;;;3.83;1.35;;;28.50;95.60;;;;;;5114301;28;20522;-66
2023/08/29 08:25:44;;;;;;;5.68;2.35;;;29.00;95.00;;;;;;5113509;28;20957;-66
2023/08/29 08:28:10;;;;;;;4.97;2.17;;;29.10;94.70;;;;;;5102602;28;20155;-65
2023/08/29 08:30:39;;;;;;;4.45;2.58;;;29.60;94.30;;;;;;5094040;28;20464;-66
2023/08/29 08:33:05;;;;;;;4.47;2.35;;;30.20;94.10;;;;;;5093765;28;20030;-65
2023/08/29 08:35:31;;;;;;;4.32;1.45;;;30.90;93.20;;;;;;5095462;28;20073;-66
2023/08/29 08:37:57;;;;;;;4.78;1.58;;;31.60;92.00;;;;;;5113797;28;20145;-66
2023/08/29 08:40:23;;;;;;;4.75;2.13;;;31.50;92.20;;;;;;5112798;28;20553;-66
2023/08/29 08:42:48;;;;;;;4.32;2.70;;;30.80;92.10;;;;;;5113549;28;20055;-65
2023/08/29 08:45:14;;;;;;;3.35;2.15;;;29.90;92.70;;;;;;5114067;28;20019;-66
2023/08/29 08:47:40;;;;;;;3.85;2.03;;;28.90;93.30;;;;;;5113519;28;20039;-66
2023/08/29 08:50:10;;;;;;;3.55;1.90;;;28.10;94.00;;;;;;5114071;28;20031;-65
2023/08/29 08:52:38;;;;;;;3.55;1.90;;;27.30;94.70;;;;;;5111825;28;20031;-65
2023/08/29 08:55:04;;;;;;;4.68;1.60;;;26.60;95.30;;;;;;5091378;28;20027;-65
2023/08/29 08:57:30;;;;;;;5.45;2.13;;;25.80;96.00;;;;;;5092859;28;20115;-65
2023/08/29 08:59:56;;;;;;;5.75;2.53;;;25.20;97.10;;;;;;5104805;28;20039;-65
2023/08/29 09:02:24;;;;;;;11.50;3.50;;;24.60;97.50;;;;;;5113639;28;20032;-65
2023/08/29 09:04:50;;;;;;;13.43;4.75;;;24.20;98.10;;;;;;5113107;28;20074;-65
2023/08/29 09:07:15;;;;;;;6.90;3.03;;;23.90;98.60;;;;;;5113294;28;20483;-65
2023/08/29 09:09:41;;;;;;;3.97;1.67;;;23.70;99.10;;;;;;5113313;28;20043;-65
2023/08/29 09:12:07;;;;;;;10.48;3.13;;;23.40;99.40;;;;;;5113382;28;20458;-65
2023/08/29 09:14:32;;;;;;;2.15;1.10;;;23.10;99.90;;;;;;5113606;28;20027;-65
2023/08/29 09:16:59;;;;;;;4.53;1.52;;;23.00;99.90;;;;;;5101428;28;20031;-66
2023/08/29 09:19:29;;;;;;;3.70;1.60;;;22.80;99.90;;;;;;5101035;28;20098;-66
2023/08/29 09:21:55;;;;;;;11.85;3.80;;;22.70;99.90;;;;;;5101949;28;20482;-66
2023/08/29 09:24:34;;;;;;;6.35;2.20;;;22.70;99.90;;;;;;5099909;28;20016;-65
2023/08/29 09:27:04;;;;;;;8.40;2.90;;;22.70;99.90;;;;;;5101221;28;20023;-66
2023/08/29 09:29:30;;;;;;;3.25;1.55;;;22.80;99.90;;;;;;5102092;28;20058;-66
2023/08/29 09:31:58;;;;;;;2.85;1.83;;;22.90;99.90;;;;;;5090775;28;20367;-64
2023/08/29 09:34:31;;;;;;;4.25;1.55;;;22.90;99.90;;;;;;5095901;28;20387;-66
2023/08/29 09:36:57;;;;;;;3.67;1.55;;;22.90;99.90;;;;;;5098932;28;20050;-66
2023/08/29 09:39:23;;;;;;;2.45;1.48;;;22.80;99.90;;;;;;5092648;28;20363;-67
2023/08/29 09:42:01;;;;;;;5.57;2.13;;;22.80;99.90;;;;;;5092743;28;20028;-64
2023/08/29 09:44:28;;;;;;;3.10;1.88;;;22.90;99.90;;;;;;5092210;28;20062;-64
2023/08/29 09:46:54;;;;;;;2.90;1.85;;;22.90;99.90;;;;;;5092534;28;20036;-65
2023/08/29 09:49:19;;;;;;;3.47;1.50;;;22.80;99.90;;;;;;5092090;28;20043;-66
2023/08/29 09:51:46;;;;;;;4.00;1.88;;;22.80;99.90;;;;;;5107959;28;20032;-65
2023/08/29 09:54:16;;;;;;;4.07;1.80;;;22.80;99.90;;;;;;5111667;28;20059;-66
2023/08/29 09:56:43;;;;;;;6.70;1.95;;;23.00;99.90;;;;;;5112224;28;20390;-66
2023/08/29 09:59:12;;;;;;;5.93;2.30;;;23.20;99.90;;;;;;5112326;28;20118;-66
2023/08/29 10:01:42;;;;;;;5.88;2.00;;;23.30;99.90;;;;;;5112584;28;20475;-65
2023/08/29 10:04:10;;;;;;;4.13;2.30;;;23.80;99.90;;;;;;5112031;28;20439;-65
2023/08/29 10:06:37;;;;;;;5.00;3.03;;;24.90;99.90;;;;;;5111120;28;20391;-66
2023/08/29 10:09:04;;;;;;;4.68;1.75;;;26.20;97.70;;;;;;5112001;28;20036;-66
2023/08/29 10:11:30;;;;;;;3.58;1.77;;;27.30;96.10;;;;;;5112059;28;20055;-66
2023/08/29 10:13:58;;;;;;;3.70;2.30;;;28.10;95.50;;;;;;5112222;28;20111;-66
2023/08/29 10:16:24;;;;;;;4.13;2.50;;;29.60;93.80;;;;;;5112711;28;20024;-67
2023/08/29 10:18:51;;;;;;;3.17;2.10;;;30.80;92.30;;;;;;5112424;28;20031;-66
2023/08/29 10:21:18;;;;;;;2.38;1.73;;;31.20;91.00;;;;;;5112712;28;20107;-66
2023/08/29 10:23:44;;;;;;;5.03;2.10;;;31.10;91.00;;;;;;5112135;28;20119;-66
2023/08/29 10:26:10;;;;;;;5.22;2.70;;;31.00;91.40;;;;;;5112935;28;20020;-66
2023/08/29 10:28:36;;;;;;;3.58;1.40;;;31.30;90.90;;;;;;5112232;28;20085;-66
2023/08/29 10:31:04;;;;;;;4.93;1.20;;;31.50;90.00;;;;;;5112864;28;20023;-65
2023/08/29 10:33:31;;;;;;;4.90;1.65;;;32.00;87.10;;;;;;5112717;28;20020;-65
2023/08/29 10:35:57;;;;;;;2.40;1.30;;;32.30;88.00;;;;;;5112434;28;20100;-67
2023/08/29 10:38:26;;;;;;;3.17;1.48;;;31.90;87.30;;;;;;5112837;28;20463;-66
2023/08/29 10:41:03;;;;;;;4.38;2.58;;;31.20;87.10;;;;;;5112583;28;20036;-66
2023/08/29 10:43:28;;;;;;;5.07;3.15;;;30.30;89.80;;;;;;5116418;28;20475;-66
2023/08/29 10:45:59;;;;;;;3.97;2.03;;;29.50;90.30;;;;;;5116284;28;20031;-66
2023/08/29 10:48:41;;;;;;;3.05;1.67;;;28.90;91.30;;;;;;5116258;28;20036;-65
2023/08/29 10:51:07;;;;;;;;;;;28.30;91.70;;;;;;5116286;28;20040;-66
2023/08/29 10:53:36;;;;;;;5.05;2.45;;;27.70;92.20;;;;;;5115842;28;19904;-65
2023/08/29 10:56:04;;;;;;;1.95;1.48;;;27.10;92.80;;;;;;5116285;28;20451;-66
2023/08/29 10:58:40;;;;;;;3.10;1.48;;;26.40;93.20;;;;;;5116174;28;20106;-66
2023/08/29 11:01:33;;;;;;;4.05;2.33;;;26.00;93.60;;;;;;5116107;28;20031;-65
2023/08/29 11:04:00;;;;;;;3.55;1.60;;;25.70;94.00;;;;;;5115591;28;20717;-65
2023/08/29 11:06:51;;;;;;;2.85;1.20;;;25.30;94.50;;;;;;5115934;28;20112;-66
2023/08/29 11:09:22;;;;;;;3.72;1.65;;;25.10;95.00;;;;;;5086625;28;20055;-67
2023/08/29 11:12:12;;;;;;;3.88;2.15;;;24.90;95.40;;;;;;5095599;28;20035;-66
2023/08/29 11:14:53;;;;;;;3.80;2.15;;;24.80;95.70;;;;;;5095385;28;20032;-67
2023/08/29 11:17:23;;;;;;;1.65;1.40;;;24.60;95.90;;;;;;5095271;28;20064;-66
2023/08/29 11:19:51;;;;;;;2.85;1.50;;;24.50;95.90;;;;;;5095197;28;20028;-65
2023/08/29 11:22:19;;;;;;;1.27;0.93;;;24.50;95.90;;;;;;5095206;28;20030;-66
2023/08/29 11:24:45;;;;;;;2.47;1.60;;;24.50;96.10;;;;;;5102705;28;20028;-66
2023/08/29 11:27:16;;;;;;;3.08;1.30;;;24.50;96.10;;;;;;5115355;28;20050;-67
2023/08/29 11:29:41;;;;;;;1.75;1.45;;;24.40;95.60;;;;;;5112819;28;20039;-66
2023/08/29 11:32:07;;;;;;;3.05;1.95;;;24.40;95.30;;;;;;5094706;28;20092;-65
2023/08/29 11:34:35;;;;;;;1.83;1.10;;;24.30;95.00;;;;;;5095107;28;20425;-66
2023/08/29 11:37:01;;;;;;;3.08;0.65;;;24.40;95.00;;;;;;5094389;28;20025;-66
2023/08/29 11:39:27;;;;;;;1.05;0.80;;;24.50;94.70;;;;;;5098847;28;20028;-67
2023/08/29 11:41:55;;;;;;;2.20;0.82;;;24.70;93.90;;;;;;5114743;28;20027;-66
2023/08/29 11:44:26;;;;;;;1.60;0.98;;;25.30;94.00;;;;;;5115193;28;20031;-67
2023/08/29 11:46:51;;;;;;;3.70;1.00;;;26.20;93.10;;;;;;5115263;28;20450;-66
2023/08/29 11:49:17;;;;;;;1.05;0.95;;;26.80;91.00;;;;;;5115132;28;20130;-66
2023/08/29 11:51:44;;;;;;;2.33;1.17;;;27.10;90.70;;;;;;5114677;28;20034;-66
2023/08/29 11:54:44;;;;;;;2.60;1.55;;;27.30;91.00;;;;;;5113534;27;20463;-65
2023/08/29 11:57:11;;;;;;;2.35;1.48;;;27.50;91.10;;;;;;5114599;28;20083;-66
2023/08/29 11:59:42;;;;;;;4.80;1.60;;;27.50;91.20;;;;;;5114535;28;20023;-66
2023/08/29 12:02:10;;;;;;;3.20;1.80;;;27.60;91.60;;;;;;5113763;28;20364;-66
2023/08/29 12:04:41;;;;;;;2.28;1.40;;;27.60;92.00;;;;;;5112162;28;20110;-66
2023/08/29 12:07:07;;;;;;;1.85;1.17;;;27.50;92.30;;;;;;5112925;28;20032;-66
2023/08/29 12:09:33;;;;;;;4.05;1.75;;;27.50;92.60;;;;;;5103483;28;20105;-65
2023/08/29 12:11:59;;;;;;;2.70;2.05;;;27.30;92.80;;;;;;5094153;28;20028;-67
2023/08/29 12:14:24;;;;;;;5.20;1.80;;;27.20;92.80;;;;;;5095768;28;20031;-66
2023/08/29 12:16:53;;;;;;;3.75;1.60;;;27.50;92.90;;;;;;5114370;28;20134;-67
2023/08/29 12:19:19;;;;;;;1.40;0.90;;;27.80;91.70;;;;;;5113040;28;20412;-67
2023/08/29 12:21:55;;;;;;;2.63;1.35;;;28.00;91.40;;;;;;5114476;28;20541;-67
2023/08/29 12:24:21;;;;;;;2.05;0.73;;;28.10;91.60;;;;;;5114282;28;20061;-67
2023/08/29 12:26:47;;;;;;;1.52;0.90;;;28.40;90.50;;;;;;5114492;28;20479;-67
2023/08/29 12:29:12;;;;;;;2.67;1.25;;;28.70;90.90;;;;;;5113716;28;20712;-68
2023/08/29 12:31:38;;;;;;;1.92;1.15;;;28.40;91.10;;;;;;5113737;28;20464;-67
2023/08/29 12:34:04;;;;;;;1.88;1.50;;;27.80;91.90;;;;;;5114024;28;20016;-66
2023/08/29 12:36:29;;;;;;;1.60;0.93;;;27.40;91.70;;;;;;5114265;28;20027;-67
2023/08/29 12:38:55;;;;;;;2.72;1.15;;;27.20;92.00;;;;;;5113618;28;20459;-67
2023/08/29 12:41:22;;;;;;;3.60;1.20;;;26.90;92.60;;;;;;5113894;28;20028;-67
2023/08/29 12:43:48;;;;;;;2.97;1.45;;;26.70;92.30;;;;;;5113558;28;20459;-67